• Join FlightAware (Why Join?)
  • Login
  • US Flag 
02:26PM EDT


 

Airport Tracker/Info


-or-


 

Live Flight TrackerFlight Track Log ✈ N440WW ✈ 05-May-2013 ✈ KSOW - KFMN

Flight Track Log - Related Links

Times and Time Zones

All times are in EDT time to prevent confusion due to time zone crossing. See the N440WW flight status page for this flight to view local times or setup timezone preferences in your user account.

Time Position Orientation Groundspeed Altitude Reporting Facility
EDT Latitude Longitude Course Direction KTS MPH feet Rate Location/Type
06:44PM 34.4033 -109.9328 34° Northeast 189 217 12,400  Level Albuquerque Center
06:45PM 34.4461 -109.8947 36° Northeast 194 223 13,900 1,560 Climbing Albuquerque Center
06:46PM 34.4964 -109.8489 37° Northeast 200 230 15,600 1,500 Climbing Albuquerque Center
06:48PM 34.5450 -109.8142 30° Northeast 208 239 17,000 1,440 Climbing Albuquerque Center
06:49PM 34.6055 -109.7462 30° Northeast  Level FlightAware Approximate
06:49PM 34.6031 -109.7714 31° Northeast 217 250 18,600  Level Albuquerque Center
06:50PM 34.6550 -109.7353 30° Northeast 222 255 20,000 1,320 Climbing Albuquerque Center
06:51PM 34.7050 -109.7011 29° Northeast 219 252 21,400 1,320 Climbing Albuquerque Center
06:52PM 34.7636 -109.6589 31° Northeast 218 251 22,800 780 Climbing Albuquerque Center
06:53PM 34.8153 -109.6144 35° Northeast 235 270 23,000 60 Climbing Albuquerque Center
06:54PM 34.8814 -109.5403 43° Northeast 280 322 23,000  Level Albuquerque Center
06:55PM 34.9481 -109.4803 36° Northeast 305 351 23,000  Level Albuquerque Center
06:56PM 35.0381 -109.4364 22° Northeast 311 358 23,000  Level Albuquerque Center
06:57PM 35.1156 -109.3958 23° Northeast 313 360 23,000  Level Albuquerque Center
06:58PM 35.1903 -109.3497 27° Northeast 314 361 23,000  Level Albuquerque Center
06:59PM 35.2758 -109.2933 28° Northeast 313 360 23,000  Level Albuquerque Center
07:00PM 35.3469 -109.2394 32° Northeast 313 360 23,000  Level Albuquerque Center
07:01PM 35.4300 -109.1750 32° Northeast 316 364 23,000  Level Albuquerque Center
07:02PM 35.5019 -109.1200 32° Northeast 317 365 23,000  Level Albuquerque Center
07:03PM 35.5742 -109.0653 32° Northeast 318 366 23,000  Level Albuquerque Center
07:04PM 35.6586 -109.0006 32° Northeast 319 367 23,000  Level Albuquerque Center
07:05PM 35.7308 -108.9458 32° Northeast 320 368 23,000  Level Albuquerque Center
07:06PM 35.8142 -108.8814 32° Northeast 318 366 23,000  Level Albuquerque Center
07:07PM 35.8836 -108.8278 32° Northeast 312 359 23,000  Level Albuquerque Center
07:08PM 35.9486 -108.7781 32° Northeast 309 356 23,000 -540 Level Albuquerque Center
07:09PM 36.0317 -108.7144 32° Northeast 307 353 21,900 -1,500 Descending Albuquerque Center
07:10PM 36.1181 -108.6467 32° Northeast 329 379 20,000 -1,860 Descending Albuquerque Center
07:11PM 36.1928 -108.5886 32° Northeast 332 382 18,200 -1,800 Descending Albuquerque Center
07:12PM 36.2636 -108.5325 33° Northeast 326 375 16,400 -1,980 Descending Albuquerque Center
07:13PM 36.3408 -108.4728 32° Northeast 305 351 14,200 -1,860 Descending Albuquerque Center
07:14PM 36.4044 -108.4228 32° Northeast 290 334 12,700 -1,620 Descending Albuquerque Center
07:15PM 36.4800 -108.3678 30° Northeast 283 326 10,900 -900 Descending Denver Center
07:18PM 36.6592 -108.2683 24° Northeast 222 255 9,000 -660 Descending Denver Center
07:19PM 36.6833 -108.2144 61° Northeast 192 221 8,300 -780 Descending Denver Center
07:20PM 36.6997 -108.1631 68° East 177 204 7,400 -1,020 Descending Denver Center
07:21PM 36.7422 -108.1803 342° North 171 197 6,200 -780 Descending Denver Center
07:22PM 36.7389 -108.2189 264° West 159 183 5,900 -300 Descending Denver Center